createdAt,value
2023-01-13T00:00:48.335Z,11.30
2023-01-13T00:03:15.547Z,11.30
2023-01-13T00:05:42.465Z,11.30
2023-01-13T00:08:09.376Z,11.30
2023-01-13T00:10:36.266Z,11.30
2023-01-13T00:13:04.372Z,11.30
2023-01-13T00:15:31.640Z,11.30
2023-01-13T00:17:58.564Z,11.30
2023-01-13T00:20:25.533Z,11.30
2023-01-13T00:22:52.383Z,11.20
2023-01-13T00:25:19.257Z,11.20
2023-01-13T00:27:46.229Z,11.20
2023-01-13T00:30:13.377Z,11.20
2023-01-13T00:32:40.417Z,11.10
2023-01-13T00:35:07.573Z,11.10
2023-01-13T00:37:38.511Z,11.10
2023-01-13T00:40:05.775Z,11.10
2023-01-13T00:42:51.669Z,11.10
2023-01-13T00:45:18.599Z,11.10
2023-01-13T00:47:45.520Z,11.00
2023-01-13T00:50:12.623Z,11.00
2023-01-13T00:52:41.926Z,11.00
2023-01-13T00:55:09.246Z,11.00
2023-01-13T00:57:36.284Z,11.00
2023-01-13T01:00:03.933Z,11.00
2023-01-13T01:02:31.052Z,10.90
2023-01-13T01:04:58.039Z,10.80
2023-01-13T01:07:25.080Z,10.90
2023-01-13T01:09:51.997Z,10.80
2023-01-13T01:12:18.882Z,10.80
2023-01-13T01:14:45.839Z,10.70
2023-01-13T01:17:12.801Z,10.60
2023-01-13T01:19:39.799Z,10.60
2023-01-13T01:22:06.696Z,10.60
2023-01-13T01:24:33.730Z,10.60
2023-01-13T01:27:00.623Z,10.60
2023-01-13T01:29:27.667Z,10.50
2023-01-13T01:31:54.536Z,10.50
2023-01-13T01:34:21.455Z,10.50
2023-01-13T01:36:48.383Z,10.50
2023-01-13T01:39:15.436Z,10.50
2023-01-13T01:42:02.367Z,10.50
2023-01-13T01:44:50.650Z,10.50
2023-01-13T01:47:18.483Z,10.50
2023-01-13T01:49:46.180Z,10.50
2023-01-13T01:52:33.322Z,10.40
2023-01-13T01:55:06.397Z,10.40
2023-01-13T01:57:38.684Z,10.40
2023-01-13T02:00:06.108Z,10.30
2023-01-13T02:02:33.090Z,10.30
2023-01-13T02:05:00.139Z,10.30
2023-01-13T02:07:28.888Z,10.30
2023-01-13T02:09:56.553Z,10.30
2023-01-13T02:12:30.058Z,10.40
2023-01-13T02:14:58.561Z,10.30
2023-01-13T02:17:34.107Z,10.30
2023-01-13T02:20:01.335Z,10.30
2023-01-13T02:22:53.669Z,10.30
2023-01-13T02:25:20.507Z,10.30
2023-01-13T02:28:00.676Z,10.40
2023-01-13T02:30:55.774Z,10.30
2023-01-13T02:33:38.213Z,10.40
2023-01-13T02:36:08.379Z,10.30
2023-01-13T02:38:37.460Z,10.40
2023-01-13T02:41:26.584Z,10.40
2023-01-13T02:44:08.399Z,10.40
2023-01-13T02:46:38.007Z,10.40
2023-01-13T02:49:07.661Z,10.50
2023-01-13T02:51:35.251Z,10.40
2023-01-13T02:54:05.397Z,10.40
2023-01-13T02:56:34.652Z,10.40
2023-01-13T02:59:01.660Z,10.40
2023-01-13T03:01:28.990Z,10.50
2023-01-13T03:03:55.944Z,10.50
2023-01-13T03:06:35.184Z,10.60
2023-01-13T03:09:23.002Z,10.60
2023-01-13T03:12:02.029Z,10.50
2023-01-13T03:14:31.947Z,10.50
2023-01-13T03:17:14.265Z,10.50
2023-01-13T03:19:55.745Z,10.40
2023-01-13T03:22:32.494Z,10.40
2023-01-13T03:24:59.356Z,10.40
2023-01-13T03:27:29.369Z,10.30
2023-01-13T03:30:02.180Z,10.40
2023-01-13T03:32:31.487Z,10.30
2023-01-13T03:35:16.217Z,10.30
2023-01-13T03:37:45.864Z,10.30
2023-01-13T03:40:18.712Z,10.30
2023-01-13T03:43:08.327Z,10.30
2023-01-13T03:45:36.056Z,10.30
2023-01-13T03:48:06.229Z,10.30
2023-01-13T03:50:35.828Z,10.30
2023-01-13T03:53:04.819Z,10.30
2023-01-13T03:55:34.304Z,10.20
2023-01-13T03:58:14.598Z,10.30
2023-01-13T04:00:44.495Z,10.30
2023-01-13T04:03:13.570Z,10.20
2023-01-13T04:05:42.349Z,10.10
2023-01-13T04:08:17.317Z,10.10
2023-01-13T04:11:07.152Z,10.00
2023-01-13T04:13:37.186Z,10.00
2023-01-13T04:16:05.921Z,10.00
2023-01-13T04:18:33.296Z,10.00
2023-01-13T04:21:01.283Z,9.90
2023-01-13T04:23:28.884Z,9.90
2023-01-13T04:25:56.005Z,9.90
2023-01-13T04:28:23.126Z,9.90
2023-01-13T04:30:50.594Z,9.90
2023-01-13T04:33:18.510Z,9.90
2023-01-13T04:35:46.153Z,9.90
2023-01-13T04:38:18.114Z,9.80
2023-01-13T04:40:45.274Z,9.80
2023-01-13T04:43:12.426Z,9.80
2023-01-13T04:45:39.303Z,9.80
2023-01-13T04:48:06.297Z,9.80
2023-01-13T04:50:33.361Z,9.80
2023-01-13T04:53:01.417Z,9.80
2023-01-13T04:55:29.552Z,9.80
2023-01-13T04:58:01.089Z,9.70
2023-01-13T05:00:28.134Z,9.70
2023-01-13T05:02:55.123Z,9.70
2023-01-13T05:05:22.023Z,9.60
2023-01-13T05:07:49.030Z,9.70
2023-01-13T05:10:16.230Z,9.60
2023-01-13T05:13:01.668Z,9.60
2023-01-13T05:15:47.036Z,9.60
2023-01-13T05:18:14.150Z,9.60
2023-01-13T05:20:40.984Z,9.60
2023-01-13T05:23:26.510Z,9.60
2023-01-13T05:25:53.438Z,9.60
2023-01-13T05:28:20.392Z,9.60
2023-01-13T05:30:49.592Z,9.70
2023-01-13T05:33:18.024Z,9.70
2023-01-13T05:35:45.834Z,9.70
2023-01-13T05:38:12.754Z,9.70
2023-01-13T05:40:59.533Z,9.60
2023-01-13T05:43:27.068Z,9.60
2023-01-13T05:45:58.712Z,9.60
2023-01-13T05:48:35.479Z,9.60
2023-01-13T05:51:03.353Z,9.60
2023-01-13T05:53:30.623Z,9.60
2023-01-13T05:55:57.451Z,9.60
2023-01-13T05:58:25.755Z,9.60
2023-01-13T06:00:52.862Z,9.50
2023-01-13T06:03:22.677Z,9.50
2023-01-13T06:05:51.560Z,9.50
2023-01-13T06:08:19.312Z,9.50
2023-01-13T06:10:46.181Z,9.50
2023-01-13T06:13:13.022Z,9.50
2023-01-13T06:15:40.039Z,9.40
2023-01-13T06:18:07.189Z,9.50
2023-01-13T06:20:34.108Z,9.40
2023-01-13T06:23:01.397Z,9.40
2023-01-13T06:25:34.591Z,9.40
2023-01-13T06:28:01.840Z,9.40
2023-01-13T06:30:30.958Z,9.40
2023-01-13T06:32:59.302Z,9.40
2023-01-13T06:35:28.549Z,9.40
2023-01-13T06:37:56.710Z,9.40
2023-01-13T06:40:23.903Z,9.40
2023-01-13T06:43:09.519Z,9.40
2023-01-13T06:45:36.452Z,9.40
2023-01-13T06:48:03.430Z,9.40
2023-01-13T06:50:30.826Z,9.40
2023-01-13T06:52:57.855Z,9.40
2023-01-13T06:55:24.865Z,9.40
2023-01-13T06:57:53.214Z,9.40
2023-01-13T07:00:20.673Z,9.40
2023-01-13T07:02:47.885Z,9.40
2023-01-13T07:05:15.442Z,9.30
2023-01-13T07:07:42.483Z,9.30
2023-01-13T07:10:11.519Z,9.30
2023-01-13T07:12:57.362Z,9.30
2023-01-13T07:15:24.311Z,9.30
2023-01-13T07:17:51.665Z,9.30
2023-01-13T07:20:18.649Z,9.30
2023-01-13T07:22:46.027Z,9.20
2023-01-13T07:25:12.906Z,9.30
2023-01-13T07:27:39.947Z,9.20
2023-01-13T07:30:07.919Z,9.30
2023-01-13T07:32:34.894Z,9.30
2023-01-13T07:35:05.678Z,9.30
2023-01-13T07:37:33.828Z,9.30
2023-01-13T07:40:00.984Z,9.30
2023-01-13T07:42:46.517Z,9.30
2023-01-13T07:45:16.516Z,9.30
2023-01-13T07:47:43.335Z,9.20
2023-01-13T07:50:10.553Z,9.20
2023-01-13T07:52:37.459Z,9.20
2023-01-13T07:55:04.408Z,9.20
2023-01-13T07:57:31.382Z,9.30
2023-01-13T07:59:58.246Z,9.30
2023-01-13T08:02:25.366Z,9.30
2023-01-13T08:04:52.320Z,9.30
2023-01-13T08:07:19.275Z,9.30
2023-01-13T08:09:46.215Z,9.30
2023-01-13T08:12:32.162Z,9.30
2023-01-13T08:14:59.041Z,9.30
2023-01-13T08:17:26.059Z,9.30
2023-01-13T08:19:53.032Z,9.40
2023-01-13T08:22:19.976Z,9.40
2023-01-13T08:24:46.879Z,9.50
2023-01-13T08:27:13.724Z,9.40
2023-01-13T08:29:40.673Z,9.50
2023-01-13T08:32:07.545Z,9.50
2023-01-13T08:34:35.956Z,9.50
2023-01-13T08:37:02.887Z,9.60
2023-01-13T08:39:29.824Z,9.60
2023-01-13T08:41:56.860Z,9.60
2023-01-13T08:44:24.836Z,9.60
2023-01-13T08:46:51.844Z,9.70
2023-01-13T08:49:18.764Z,9.70
2023-01-13T08:51:45.654Z,9.80
2023-01-13T08:54:12.667Z,9.80
2023-01-13T08:56:40.667Z,9.90
2023-01-13T08:59:10.342Z,9.90
2023-01-13T09:01:39.616Z,10.00
2023-01-13T09:04:07.460Z,10.00
2023-01-13T09:06:34.476Z,10.10
2023-01-13T09:09:03.008Z,10.10
2023-01-13T09:11:50.082Z,10.10
2023-01-13T09:14:18.246Z,10.00
2023-01-13T09:16:45.211Z,10.10
2023-01-13T09:19:12.416Z,10.10
2023-01-13T09:21:39.620Z,10.10
2023-01-13T09:24:07.033Z,10.10
2023-01-13T09:26:33.991Z,10.00
2023-01-13T09:29:01.222Z,10.00
2023-01-13T09:31:28.895Z,10.00
2023-01-13T09:34:14.520Z,10.00
2023-01-13T09:36:41.359Z,10.00
2023-01-13T09:39:08.533Z,10.10
2023-01-13T09:41:59.248Z,10.10
2023-01-13T09:44:29.936Z,10.10
2023-01-13T09:47:00.824Z,10.20
2023-01-13T09:49:41.593Z,10.30
2023-01-13T09:52:16.943Z,10.30
2023-01-13T09:54:44.842Z,10.40
2023-01-13T09:57:12.899Z,10.40
2023-01-13T09:59:39.937Z,10.30
2023-01-13T10:02:13.053Z,10.40
2023-01-13T10:04:40.054Z,10.40
2023-01-13T10:07:11.923Z,10.40
2023-01-13T10:09:49.655Z,10.40
2023-01-13T10:12:36.364Z,10.40
2023-01-13T10:15:03.493Z,10.40
2023-01-13T10:17:30.437Z,10.40
2023-01-13T10:20:13.170Z,10.40
2023-01-13T10:22:58.581Z,10.50
2023-01-13T10:25:41.154Z,10.50
2023-01-13T10:28:13.209Z,10.60
2023-01-13T10:30:41.369Z,10.60
2023-01-13T10:33:13.194Z,10.60
2023-01-13T10:35:59.322Z,10.60
2023-01-13T10:38:28.943Z,10.70
2023-01-13T10:40:57.825Z,10.70
2023-01-13T10:43:25.102Z,10.60
2023-01-13T10:46:00.017Z,10.60
2023-01-13T10:49:02.587Z,10.50
2023-01-13T10:51:38.365Z,10.50
2023-01-13T10:54:07.924Z,10.50
2023-01-13T10:56:35.051Z,10.40
2023-01-13T10:59:22.436Z,10.40
2023-01-13T11:01:58.303Z,10.40
2023-01-13T11:04:30.883Z,10.40
2023-01-13T11:06:58.608Z,10.30
2023-01-13T11:09:26.597Z,10.30
2023-01-13T11:11:57.108Z,10.30
2023-01-13T11:14:42.044Z,10.20
2023-01-13T11:17:14.658Z,10.20
2023-01-13T11:19:43.528Z,10.20
2023-01-13T11:22:17.400Z,10.10
2023-01-13T11:24:59.052Z,10.10
2023-01-13T11:27:44.711Z,10.20
2023-01-13T11:30:17.797Z,10.30
2023-01-13T11:32:53.749Z,10.30
2023-01-13T11:35:22.134Z,10.30
2023-01-13T11:37:54.825Z,10.40
2023-01-13T11:40:26.265Z,10.40
2023-01-13T11:42:56.102Z,10.40
2023-01-13T11:45:35.079Z,10.30
2023-01-13T11:48:02.993Z,10.30
2023-01-13T11:50:34.713Z,10.50
2023-01-13T11:53:15.998Z,10.50
2023-01-13T11:55:42.837Z,10.50
2023-01-13T11:58:20.538Z,10.50
2023-01-13T12:00:47.374Z,10.50
2023-01-13T12:03:23.698Z,10.50
2023-01-13T12:06:09.516Z,10.50
2023-01-13T12:08:36.368Z,10.50
2023-01-13T12:11:03.242Z,10.60
2023-01-13T12:13:45.306Z,10.60
2023-01-13T12:16:20.936Z,10.60
2023-01-13T12:18:47.802Z,10.60
2023-01-13T12:21:19.874Z,10.50
2023-01-13T12:23:59.308Z,10.60
2023-01-13T12:26:26.449Z,10.50
2023-01-13T12:29:07.913Z,10.60
2023-01-13T12:31:37.138Z,10.60
2023-01-13T12:34:04.323Z,10.60
2023-01-13T12:36:50.096Z,10.60
2023-01-13T12:39:19.978Z,10.60
2023-01-13T12:42:14.684Z,10.70
2023-01-13T12:45:00.264Z,10.80
2023-01-13T12:47:43.976Z,10.80
2023-01-13T12:50:23.850Z,10.80
2023-01-13T12:52:51.673Z,10.80
2023-01-13T12:55:22.941Z,10.80
2023-01-13T12:57:56.032Z,11.00
2023-01-13T13:00:23.296Z,11.00
2023-01-13T13:03:12.440Z,10.90
2023-01-13T13:05:47.941Z,10.90
2023-01-13T13:08:20.846Z,10.80
2023-01-13T13:11:06.250Z,11.00
2023-01-13T13:13:46.835Z,10.90
2023-01-13T13:16:36.995Z,10.90
2023-01-13T13:19:19.541Z,10.80
2023-01-13T13:22:05.243Z,10.80
2023-01-13T13:24:32.255Z,10.70
2023-01-13T13:27:16.264Z,10.80
2023-01-13T13:29:47.796Z,10.80
2023-01-13T13:32:27.534Z,10.80
2023-01-13T13:35:13.215Z,10.70
2023-01-13T13:38:13.908Z,10.70
2023-01-13T13:41:01.385Z,10.70
2023-01-13T13:43:47.259Z,10.70
2023-01-13T13:46:42.115Z,10.70
2023-01-13T13:49:09.004Z,10.70
2023-01-13T13:51:40.176Z,10.70
2023-01-13T13:54:10.327Z,10.70
2023-01-13T13:56:40.340Z,10.70
2023-01-13T13:59:09.402Z,10.70
2023-01-13T14:01:38.185Z,10.60
2023-01-13T14:04:07.411Z,10.70
2023-01-13T14:06:34.475Z,10.70
2023-01-13T14:09:02.444Z,10.60
2023-01-13T14:11:32.217Z,10.60
2023-01-13T14:14:02.782Z,10.70
2023-01-13T14:16:30.013Z,10.70
2023-01-13T14:19:00.433Z,10.70
2023-01-13T14:21:28.633Z,10.60
2023-01-13T14:24:00.315Z,10.60
2023-01-13T14:26:29.266Z,10.60
2023-01-13T14:28:57.167Z,10.70
2023-01-13T14:31:24.759Z,10.60
2023-01-13T14:33:56.159Z,10.70
2023-01-13T14:36:24.472Z,10.60
2023-01-13T14:39:03.667Z,10.60
2023-01-13T14:41:42.913Z,10.60
2023-01-13T14:44:16.318Z,10.60
2023-01-13T14:46:44.682Z,10.60
2023-01-13T14:49:17.372Z,10.60
2023-01-13T14:51:44.669Z,10.60
2023-01-13T14:54:30.309Z,10.60
2023-01-13T14:57:15.776Z,10.60
2023-01-13T15:00:08.989Z,10.50
2023-01-13T15:02:38.133Z,10.50
2023-01-13T15:05:20.387Z,10.50
2023-01-13T15:07:51.392Z,10.40
2023-01-13T15:10:25.072Z,10.60
2023-01-13T15:12:52.999Z,10.50
2023-01-13T15:15:25.309Z,10.50
2023-01-13T15:17:53.230Z,10.40
2023-01-13T15:20:21.545Z,10.40
2023-01-13T15:22:49.150Z,10.40
2023-01-13T15:25:16.084Z,10.50
2023-01-13T15:27:48.090Z,10.50
2023-01-13T15:30:15.877Z,10.50
2023-01-13T15:32:43.258Z,10.50
2023-01-13T15:35:14.240Z,10.50
2023-01-13T15:37:41.916Z,10.60
2023-01-13T15:40:13.996Z,10.50
2023-01-13T15:42:59.645Z,10.50
2023-01-13T15:45:45.872Z,10.50
2023-01-13T15:48:12.958Z,10.50
2023-01-13T15:50:39.904Z,10.50
2023-01-13T15:53:06.961Z,10.40
2023-01-13T15:55:35.663Z,10.50
2023-01-13T15:58:02.774Z,10.40
2023-01-13T16:00:29.707Z,10.50
2023-01-13T16:02:56.866Z,10.50
2023-01-13T16:05:23.851Z,10.50
2023-01-13T16:07:50.835Z,10.50
2023-01-13T16:10:19.169Z,10.50
2023-01-13T16:12:46.164Z,10.50
2023-01-13T16:15:14.030Z,10.50
2023-01-13T16:17:41.550Z,10.50
2023-01-13T16:20:15.957Z,10.50
2023-01-13T16:22:42.890Z,10.60
2023-01-13T16:25:15.643Z,10.50
2023-01-13T16:27:42.485Z,10.50
2023-01-13T16:30:29.721Z,10.50
2023-01-13T16:32:56.844Z,10.40
2023-01-13T16:35:24.328Z,10.40
2023-01-13T16:37:52.253Z,10.40
2023-01-13T16:40:26.965Z,10.40
2023-01-13T16:42:53.813Z,10.40
2023-01-13T16:45:20.721Z,10.50
2023-01-13T16:47:50.541Z,10.50
2023-01-13T16:50:37.279Z,10.50
2023-01-13T16:53:04.635Z,10.50
2023-01-13T16:55:31.557Z,10.50
2023-01-13T16:57:58.432Z,10.40
2023-01-13T17:00:25.770Z,10.40
2023-01-13T17:02:52.635Z,10.30
2023-01-13T17:05:19.607Z,10.30
2023-01-13T17:07:47.678Z,10.30
2023-01-13T17:10:16.312Z,10.30
2023-01-13T17:12:43.244Z,10.30
2023-01-13T17:15:11.454Z,10.20
2023-01-13T17:17:38.460Z,10.20
2023-01-13T17:20:05.708Z,10.20
2023-01-13T17:22:32.659Z,10.20
2023-01-13T17:25:03.428Z,10.20
2023-01-13T17:27:30.345Z,10.20
2023-01-13T17:29:57.278Z,10.10
2023-01-13T17:32:24.226Z,10.10
2023-01-13T17:34:51.991Z,10.10
2023-01-13T17:37:18.933Z,10.10
2023-01-13T17:39:48.508Z,10.10
2023-01-13T17:42:15.992Z,10.10
2023-01-13T17:44:43.061Z,10.10
2023-01-13T17:47:10.090Z,10.10
2023-01-13T17:49:37.052Z,10.00
2023-01-13T17:52:04.383Z,10.00
2023-01-13T17:54:31.325Z,10.00
2023-01-13T17:56:58.281Z,10.10
2023-01-13T17:59:25.188Z,10.10
2023-01-13T18:01:52.606Z,10.00
2023-01-13T18:04:21.113Z,10.10
2023-01-13T18:06:48.694Z,10.00
2023-01-13T18:09:16.374Z,10.00
2023-01-13T18:11:44.228Z,9.90
2023-01-13T18:14:11.933Z,9.90
2023-01-13T18:16:39.303Z,9.90
2023-01-13T18:19:26.849Z,9.90
2023-01-13T18:22:12.230Z,9.90
2023-01-13T18:24:57.504Z,9.90
2023-01-13T18:27:27.581Z,10.00
2023-01-13T18:29:58.008Z,9.90
2023-01-13T18:32:30.123Z,9.90
2023-01-13T18:35:05.979Z,9.90
2023-01-13T18:37:36.204Z,9.90
2023-01-13T18:40:03.689Z,9.90
2023-01-13T18:42:49.041Z,9.90
2023-01-13T18:45:15.938Z,9.90
2023-01-13T18:47:42.769Z,9.90
2023-01-13T18:50:10.010Z,9.80
2023-01-13T18:52:36.938Z,9.90
2023-01-13T18:55:04.073Z,9.90
2023-01-13T18:57:31.162Z,10.00
2023-01-13T18:59:58.344Z,9.90
2023-01-13T19:02:26.686Z,9.90
2023-01-13T19:04:54.079Z,9.90
2023-01-13T19:07:27.221Z,9.90
2023-01-13T19:09:59.465Z,9.90
2023-01-13T19:12:27.659Z,9.90
2023-01-13T19:14:55.389Z,9.90
2023-01-13T19:17:23.288Z,10.00
2023-01-13T19:19:51.747Z,10.00
2023-01-13T19:22:23.473Z,10.00
2023-01-13T19:24:50.745Z,10.00
2023-01-13T19:27:19.406Z,9.90
2023-01-13T19:29:52.354Z,9.90
2023-01-13T19:32:22.633Z,9.90
2023-01-13T19:34:51.217Z,10.00
2023-01-13T19:37:19.291Z,9.90
2023-01-13T19:39:46.220Z,10.00
2023-01-13T19:42:31.833Z,10.00
2023-01-13T19:45:17.460Z,10.00
2023-01-13T19:47:45.921Z,10.00
2023-01-13T19:50:13.835Z,10.00
2023-01-13T19:52:41.511Z,10.10
2023-01-13T19:55:09.765Z,10.00
2023-01-13T19:57:38.301Z,10.00
2023-01-13T20:00:07.274Z,10.00
2023-01-13T20:02:36.830Z,9.90
2023-01-13T20:05:06.049Z,9.90
2023-01-13T20:07:33.572Z,9.90
2023-01-13T20:10:01.717Z,9.90
2023-01-13T20:12:29.904Z,9.80
2023-01-13T20:14:57.174Z,9.80
2023-01-13T20:17:26.379Z,9.80
2023-01-13T20:19:53.326Z,9.80
2023-01-13T20:22:20.456Z,9.80
2023-01-13T20:24:48.793Z,9.90
2023-01-13T20:27:15.727Z,10.00
2023-01-13T20:29:42.662Z,10.10
2023-01-13T20:32:09.613Z,10.10
2023-01-13T20:34:36.565Z,10.10
2023-01-13T20:37:03.540Z,10.00
2023-01-13T20:39:31.177Z,10.10
2023-01-13T20:42:27.419Z,10.00
2023-01-13T20:44:54.478Z,10.00
2023-01-13T20:47:21.759Z,10.00
2023-01-13T20:49:48.960Z,10.00
2023-01-13T20:52:15.987Z,9.90
2023-01-13T20:54:42.952Z,9.90
2023-01-13T20:57:10.599Z,9.90
2023-01-13T20:59:38.488Z,9.90
2023-01-13T21:02:06.886Z,9.90
2023-01-13T21:04:33.875Z,9.80
2023-01-13T21:07:00.838Z,9.80
2023-01-13T21:09:27.901Z,9.90
2023-01-13T21:12:13.677Z,9.80
2023-01-13T21:14:59.368Z,9.80
2023-01-13T21:17:44.731Z,9.70
2023-01-13T21:20:12.883Z,9.70
2023-01-13T21:22:40.937Z,9.70
2023-01-13T21:25:08.037Z,9.70
2023-01-13T21:27:35.082Z,9.60
2023-01-13T21:30:02.126Z,9.60
2023-01-13T21:32:29.059Z,9.60
2023-01-13T21:34:56.209Z,9.60
2023-01-13T21:37:23.490Z,9.60
2023-01-13T21:39:50.421Z,9.60
2023-01-13T21:45:31.709Z,9.60
2023-01-13T21:47:58.635Z,9.60
2023-01-13T21:50:26.676Z,9.50
2023-01-13T21:52:53.862Z,9.50
2023-01-13T21:55:25.327Z,9.50
2023-01-13T21:57:53.479Z,9.50
2023-01-13T22:00:21.236Z,9.50
2023-01-13T22:02:48.755Z,9.50
2023-01-13T22:05:16.785Z,9.40
2023-01-13T22:07:43.720Z,9.40
2023-01-13T22:10:12.916Z,9.40
2023-01-13T22:12:40.477Z,9.40
2023-01-13T22:15:07.815Z,9.40
2023-01-13T22:17:34.755Z,9.40
2023-01-13T22:20:01.790Z,9.40
2023-01-13T22:22:29.289Z,9.40
2023-01-13T22:24:56.310Z,9.30
2023-01-13T22:27:24.600Z,9.30
2023-01-13T22:29:52.562Z,9.30
2023-01-13T22:32:20.401Z,9.30
2023-01-13T22:34:48.191Z,9.30
2023-01-13T22:37:15.254Z,9.30
2023-01-13T22:39:42.288Z,9.30
2023-01-13T22:42:10.362Z,9.30
2023-01-13T22:44:37.301Z,9.20
2023-01-13T22:47:04.219Z,9.20
2023-01-13T22:49:31.125Z,9.20
2023-01-13T22:51:57.943Z,9.20
2023-01-13T22:54:24.871Z,9.20
2023-01-13T22:56:51.721Z,9.20
2023-01-13T22:59:18.643Z,9.20
2023-01-13T23:01:45.591Z,9.20
2023-01-13T23:04:15.204Z,9.20
2023-01-13T23:06:42.290Z,9.20
2023-01-13T23:09:10.169Z,9.10
2023-01-13T23:11:37.009Z,9.10
2023-01-13T23:14:05.105Z,9.10
2023-01-13T23:16:33.791Z,9.10
2023-01-13T23:19:00.843Z,9.10
2023-01-13T23:21:29.964Z,9.10
2023-01-13T23:23:58.637Z,9.10
2023-01-13T23:26:26.535Z,9.00
2023-01-13T23:28:53.661Z,9.00
2023-01-13T23:31:22.301Z,9.00
2023-01-13T23:33:49.411Z,9.00
2023-01-13T23:36:20.963Z,9.00
2023-01-13T23:38:48.148Z,9.00
2023-01-13T23:41:16.146Z,9.00
2023-01-13T23:43:43.189Z,8.90
2023-01-13T23:46:12.298Z,8.90
2023-01-13T23:48:39.508Z,8.90
2023-01-13T23:51:08.249Z,8.90
2023-01-13T23:53:39.963Z,8.90
2023-01-13T23:56:08.490Z,8.80
2023-01-13T23:58:35.642Z,8.90
